EJU62WR LEZL-LIMC
Flight info
| Callsign | EJU62WR |
|---|---|
| Flight time | N/A |
| Altitude | 30000 |
| Route | BUDIT DCT ETURA DCT TOSTO DCT OLPOS DCT BEGOX DCT LASPO DCT SOPET DCT DIKUT DCT TORDU DCT LOTOS DCT EBROX DCT PEXOT DCT RODRA DCT BCN DCT SALON DCT AGENA DCT BODEQ DCT LUMAS DCT NIBIK DCT NETUP DCT STP DCT RAPED DCT PIGOS DCT EKSID DCT NOSTA DCT NOPMU DCT EGHIN DCT ANAKI P860 DEVOX |
| Aircraft | A320/M-SDE3FGHIRWY/LB1 |
Departure
| Time | 2026-04-29 20:30 |
|---|---|
| Airport | Seville Airport (LEZL) |
Arrival
| Time | N/A |
|---|---|
| Airport | Milan Malpensa International Airport (LIMC) |
| Time | Latitude | Longitude | Altitude | Speed | Heading |
|---|---|---|---|---|---|
| 2026-04-29 20:01 | 37.42245 | -5.89913 | 94 ft | 0 kts | 314° |
| 2026-04-29 20:21 | 37.42243 | -5.89911 | 76 ft | 2 kts | 314° |
| 2026-04-29 20:21 | 37.42224 | -5.89889 | 100 ft | 4 kts | 326° |
| 2026-04-29 20:21 | 37.42200 | -5.89874 | 94 ft | 4 kts | 346° |
| 2026-04-29 20:22 | 37.42175 | -5.89873 | 91 ft | 4 kts | 27° |
| 2026-04-29 20:22 | 37.42167 | -5.89878 | 94 ft | 0 kts | 44° |
| 2026-04-29 20:23 | 37.42168 | -5.89877 | 94 ft | 1 kts | 44° |
| 2026-04-29 20:24 | 37.42182 | -5.89860 | 94 ft | 5 kts | 45° |
| 2026-04-29 20:24 | 37.42222 | -5.89810 | 93 ft | 12 kts | 42° |
| 2026-04-29 20:24 | 37.42257 | -5.89762 | 95 ft | 14 kts | 62° |
| 2026-04-29 20:24 | 37.42227 | -5.89669 | 93 ft | 12 kts | 136° |
| 2026-04-29 20:25 | 37.42176 | -5.89607 | 95 ft | 9 kts | 135° |
| 2026-04-29 20:25 | 37.42140 | -5.89560 | 96 ft | 7 kts | 133° |
| 2026-04-29 20:25 | 37.42104 | -5.89512 | 97 ft | 8 kts | 134° |
| 2026-04-29 20:25 | 37.42060 | -5.89455 | 98 ft | 11 kts | 135° |
| 2026-04-29 20:26 | 37.41994 | -5.89367 | 99 ft | 15 kts | 124° |
| 2026-04-29 20:26 | 37.41983 | -5.89239 | 100 ft | 15 kts | 89° |
| 2026-04-29 20:26 | 37.41984 | -5.89102 | 100 ft | 16 kts | 90° |
| 2026-04-29 20:26 | 37.41981 | -5.88960 | 101 ft | 17 kts | 92° |
| 2026-04-29 20:27 | 37.41975 | -5.88813 | 102 ft | 17 kts | 90° |
| 2026-04-29 20:27 | 37.41982 | -5.88710 | 103 ft | 21 kts | 84° |
| 2026-04-29 20:27 | 37.41985 | -5.88421 | 105 ft | 25 kts | 90° |
| 2026-04-29 20:27 | 37.41984 | -5.88197 | 105 ft | 26 kts | 89° |
| 2026-04-29 20:28 | 37.41987 | -5.87969 | 107 ft | 26 kts | 89° |
| 2026-04-29 20:28 | 37.41988 | -5.87741 | 108 ft | 26 kts | 89° |
| 2026-04-29 20:28 | 37.41983 | -5.87534 | 108 ft | 18 kts | 103° |
| 2026-04-29 20:28 | 37.41927 | -5.87436 | 113 ft | 11 kts | 150° |
| 2026-04-29 20:29 | 37.41865 | -5.87432 | 112 ft | 8 kts | 201° |
| 2026-04-29 20:29 | 37.41817 | -5.87475 | 114 ft | 8 kts | 219° |
| 2026-04-29 20:29 | 37.41800 | -5.87602 | 114 ft | 33 kts | 268° |
| 2026-04-29 20:29 | 37.41798 | -5.88198 | 106 ft | 99 kts | 269° |
| 2026-04-29 20:30 | 37.41798 | -5.89279 | 108 ft | 145 kts | 269° |
| 2026-04-29 20:30 | 37.42105 | -5.90574 | 413 ft | 161 kts | 284° |
| 2026-04-29 20:30 | 37.42634 | -5.91832 | 878 ft | 168 kts | 295° |
| 2026-04-29 20:30 | 37.43751 | -5.92343 | 409 ft | 214 kts | 51° |
| 2026-04-29 20:31 | 37.44156 | -5.91396 | 63 ft | 47 kts | 80° |
| 2026-04-29 20:31 | 37.43699 | -5.91929 | 123 ft | 594 kts | 20° |